sensor_id;sensor_type;location;lat;lon;timestamp;P1;durP1;ratioP1;P2;durP2;ratioP2
12762;SDS011;6445;52.490;13.378;2024-02-26T00:02:02;17.73;;;11.98;;
12762;SDS011;6445;52.490;13.378;2024-02-26T00:04:27;19.13;;;11.50;;
12762;SDS011;6445;52.490;13.378;2024-02-26T00:06:52;18.33;;;12.00;;
12762;SDS011;6445;52.490;13.378;2024-02-26T00:09:19;18.95;;;12.63;;
12762;SDS011;6445;52.490;13.378;2024-02-26T00:11:44;22.90;;;13.70;;
12762;SDS011;6445;52.490;13.378;2024-02-26T00:14:09;19.33;;;12.30;;
12762;SDS011;6445;52.490;13.378;2024-02-26T00:16:35;18.95;;;13.20;;
12762;SDS011;6445;52.490;13.378;2024-02-26T00:19:00;20.08;;;13.15;;
12762;SDS011;6445;52.490;13.378;2024-02-26T00:21:25;21.90;;;13.60;;
12762;SDS011;6445;52.490;13.378;2024-02-26T00:23:53;21.75;;;12.98;;
12762;SDS011;6445;52.490;13.378;2024-02-26T00:26:18;17.58;;;12.68;;
12762;SDS011;6445;52.490;13.378;2024-02-26T00:28:44;18.13;;;12.70;;
12762;SDS011;6445;52.490;13.378;2024-02-26T00:31:09;18.98;;;13.32;;
12762;SDS011;6445;52.490;13.378;2024-02-26T00:33:34;17.98;;;12.20;;
12762;SDS011;6445;52.490;13.378;2024-02-26T00:35:59;18.60;;;12.40;;
12762;SDS011;6445;52.490;13.378;2024-02-26T00:38:25;19.50;;;12.90;;
12762;SDS011;6445;52.490;13.378;2024-02-26T00:40:50;16.42;;;12.38;;
12762;SDS011;6445;52.490;13.378;2024-02-26T00:43:15;18.75;;;12.40;;
12762;SDS011;6445;52.490;13.378;2024-02-26T00:45:40;19.83;;;12.70;;
12762;SDS011;6445;52.490;13.378;2024-02-26T00:48:06;19.65;;;12.68;;
12762;SDS011;6445;52.490;13.378;2024-02-26T00:50:32;17.90;;;12.38;;
12762;SDS011;6445;52.490;13.378;2024-02-26T00:52:58;16.88;;;12.45;;
12762;SDS011;6445;52.490;13.378;2024-02-26T00:55:23;17.17;;;12.35;;
12762;SDS011;6445;52.490;13.378;2024-02-26T00:57:49;17.40;;;12.57;;
12762;SDS011;6445;52.490;13.378;2024-02-26T01:00:14;16.85;;;11.90;;
12762;SDS011;6445;52.490;13.378;2024-02-26T01:02:40;17.27;;;12.63;;
12762;SDS011;6445;52.490;13.378;2024-02-26T01:05:06;18.88;;;13.38;;
12762;SDS011;6445;52.490;13.378;2024-02-26T01:07:34;15.85;;;12.13;;
12762;SDS011;6445;52.490;13.378;2024-02-26T01:10:01;16.52;;;11.25;;
12762;SDS011;6445;52.490;13.378;2024-02-26T01:12:27;18.23;;;12.70;;
12762;SDS011;6445;52.490;13.378;2024-02-26T01:14:52;20.77;;;13.07;;
12762;SDS011;6445;52.490;13.378;2024-02-26T01:17:17;15.73;;;11.77;;
12762;SDS011;6445;52.490;13.378;2024-02-26T01:19:43;16.45;;;11.40;;
12762;SDS011;6445;52.490;13.378;2024-02-26T01:22:09;15.18;;;10.95;;
12762;SDS011;6445;52.490;13.378;2024-02-26T01:24:34;13.35;;;11.05;;
12762;SDS011;6445;52.490;13.378;2024-02-26T01:26:59;14.00;;;10.50;;
12762;SDS011;6445;52.490;13.378;2024-02-26T01:29:25;16.92;;;11.18;;
12762;SDS011;6445;52.490;13.378;2024-02-26T01:31:50;14.90;;;11.52;;
12762;SDS011;6445;52.490;13.378;2024-02-26T01:34:15;15.43;;;11.27;;
12762;SDS011;6445;52.490;13.378;2024-02-26T01:36:42;15.98;;;11.35;;
12762;SDS011;6445;52.490;13.378;2024-02-26T01:39:07;15.75;;;10.98;;
12762;SDS011;6445;52.490;13.378;2024-02-26T01:41:33;14.60;;;10.95;;
12762;SDS011;6445;52.490;13.378;2024-02-26T01:43:58;16.40;;;11.02;;
12762;SDS011;6445;52.490;13.378;2024-02-26T01:46:23;16.98;;;10.75;;
12762;SDS011;6445;52.490;13.378;2024-02-26T01:48:48;16.73;;;11.52;;
12762;SDS011;6445;52.490;13.378;2024-02-26T01:51:14;13.85;;;10.52;;
12762;SDS011;6445;52.490;13.378;2024-02-26T01:53:40;17.17;;;11.38;;
12762;SDS011;6445;52.490;13.378;2024-02-26T01:56:06;16.00;;;10.45;;
12762;SDS011;6445;52.490;13.378;2024-02-26T01:58:32;14.75;;;11.52;;
12762;SDS011;6445;52.490;13.378;2024-02-26T02:01:00;16.48;;;11.80;;
12762;SDS011;6445;52.490;13.378;2024-02-26T02:03:26;14.27;;;11.48;;
12762;SDS011;6445;52.490;13.378;2024-02-26T02:05:52;17.23;;;12.10;;
12762;SDS011;6445;52.490;13.378;2024-02-26T02:08:17;15.50;;;11.88;;
12762;SDS011;6445;52.490;13.378;2024-02-26T02:10:43;13.93;;;11.70;;
12762;SDS011;6445;52.490;13.378;2024-02-26T02:13:09;15.95;;;11.25;;
12762;SDS011;6445;52.490;13.378;2024-02-26T02:15:34;16.55;;;11.80;;
12762;SDS011;6445;52.490;13.378;2024-02-26T02:17:59;15.65;;;11.30;;
12762;SDS011;6445;52.490;13.378;2024-02-26T02:20:26;14.63;;;11.30;;
12762;SDS011;6445;52.490;13.378;2024-02-26T02:22:57;18.67;;;11.75;;
12762;SDS011;6445;52.490;13.378;2024-02-26T02:25:23;14.73;;;11.48;;
12762;SDS011;6445;52.490;13.378;2024-02-26T02:27:48;14.65;;;10.68;;
12762;SDS011;6445;52.490;13.378;2024-02-26T02:30:13;14.90;;;10.93;;
12762;SDS011;6445;52.490;13.378;2024-02-26T02:32:40;14.48;;;10.50;;
12762;SDS011;6445;52.490;13.378;2024-02-26T02:35:06;14.90;;;11.57;;
12762;SDS011;6445;52.490;13.378;2024-02-26T02:37:32;12.63;;;10.38;;
12762;SDS011;6445;52.490;13.378;2024-02-26T02:39:57;15.27;;;10.93;;
12762;SDS011;6445;52.490;13.378;2024-02-26T02:42:23;14.73;;;11.00;;
12762;SDS011;6445;52.490;13.378;2024-02-26T02:44:48;14.18;;;10.52;;
12762;SDS011;6445;52.490;13.378;2024-02-26T02:47:14;14.30;;;10.55;;
12762;SDS011;6445;52.490;13.378;2024-02-26T02:49:39;11.05;;;9.15;;
12762;SDS011;6445;52.490;13.378;2024-02-26T02:52:04;13.30;;;8.77;;
12762;SDS011;6445;52.490;13.378;2024-02-26T02:54:30;12.90;;;9.00;;
12762;SDS011;6445;52.490;13.378;2024-02-26T02:56:55;13.57;;;9.50;;
12762;SDS011;6445;52.490;13.378;2024-02-26T02:59:20;13.75;;;9.57;;
12762;SDS011;6445;52.490;13.378;2024-02-26T03:01:45;13.20;;;9.43;;
12762;SDS011;6445;52.490;13.378;2024-02-26T03:04:10;13.32;;;10.25;;
12762;SDS011;6445;52.490;13.378;2024-02-26T03:06:36;13.57;;;9.27;;
12762;SDS011;6445;52.490;13.378;2024-02-26T03:09:01;11.80;;;8.93;;
12762;SDS011;6445;52.490;13.378;2024-02-26T03:11:27;11.88;;;9.38;;
12762;SDS011;6445;52.490;13.378;2024-02-26T03:13:52;12.25;;;9.52;;
12762;SDS011;6445;52.490;13.378;2024-02-26T03:16:17;12.40;;;9.90;;
12762;SDS011;6445;52.490;13.378;2024-02-26T03:18:42;12.30;;;9.32;;
12762;SDS011;6445;52.490;13.378;2024-02-26T03:21:08;14.38;;;9.80;;
12762;SDS011;6445;52.490;13.378;2024-02-26T03:23:33;10.80;;;8.98;;
12762;SDS011;6445;52.490;13.378;2024-02-26T03:26:02;10.13;;;8.20;;
12762;SDS011;6445;52.490;13.378;2024-02-26T03:28:28;11.88;;;9.10;;
12762;SDS011;6445;52.490;13.378;2024-02-26T03:30:54;10.60;;;8.57;;
12762;SDS011;6445;52.490;13.378;2024-02-26T03:33:19;12.95;;;9.57;;
12762;SDS011;6445;52.490;13.378;2024-02-26T03:35:44;11.90;;;9.32;;
12762;SDS011;6445;52.490;13.378;2024-02-26T03:38:09;11.88;;;8.90;;
12762;SDS011;6445;52.490;13.378;2024-02-26T03:40:34;11.80;;;8.80;;
12762;SDS011;6445;52.490;13.378;2024-02-26T03:43:00;10.48;;;8.95;;
12762;SDS011;6445;52.490;13.378;2024-02-26T03:45:25;13.43;;;8.73;;
12762;SDS011;6445;52.490;13.378;2024-02-26T03:47:51;13.55;;;9.52;;
12762;SDS011;6445;52.490;13.378;2024-02-26T03:50:16;12.05;;;9.02;;
12762;SDS011;6445;52.490;13.378;2024-02-26T03:52:41;13.00;;;8.77;;
12762;SDS011;6445;52.490;13.378;2024-02-26T03:55:06;10.82;;;8.88;;
12762;SDS011;6445;52.490;13.378;2024-02-26T03:57:32;13.73;;;9.07;;
12762;SDS011;6445;52.490;13.378;2024-02-26T03:59:58;14.52;;;9.32;;
12762;SDS011;6445;52.490;13.378;2024-02-26T04:02:23;10.00;;;8.70;;
12762;SDS011;6445;52.490;13.378;2024-02-26T04:04:48;11.65;;;8.90;;
12762;SDS011;6445;52.490;13.378;2024-02-26T04:07:14;13.55;;;9.38;;
12762;SDS011;6445;52.490;13.378;2024-02-26T04:09:39;10.50;;;8.73;;
12762;SDS011;6445;52.490;13.378;2024-02-26T04:12:04;14.40;;;9.55;;
12762;SDS011;6445;52.490;13.378;2024-02-26T04:14:30;12.80;;;9.15;;
12762;SDS011;6445;52.490;13.378;2024-02-26T04:16:55;15.48;;;10.10;;
12762;SDS011;6445;52.490;13.378;2024-02-26T04:19:20;14.50;;;9.77;;
12762;SDS011;6445;52.490;13.378;2024-02-26T04:21:46;16.27;;;10.38;;
12762;SDS011;6445;52.490;13.378;2024-02-26T04:24:11;13.25;;;10.27;;
12762;SDS011;6445;52.490;13.378;2024-02-26T04:26:36;14.38;;;9.88;;
12762;SDS011;6445;52.490;13.378;2024-02-26T04:29:02;13.55;;;10.43;;
12762;SDS011;6445;52.490;13.378;2024-02-26T04:31:27;14.32;;;10.60;;
12762;SDS011;6445;52.490;13.378;2024-02-26T04:33:52;13.35;;;9.90;;
12762;SDS011;6445;52.490;13.378;2024-02-26T04:36:17;14.32;;;9.90;;
12762;SDS011;6445;52.490;13.378;2024-02-26T04:38:43;13.23;;;10.10;;
12762;SDS011;6445;52.490;13.378;2024-02-26T04:41:09;13.63;;;10.52;;
12762;SDS011;6445;52.490;13.378;2024-02-26T04:43:34;15.48;;;10.55;;
12762;SDS011;6445;52.490;13.378;2024-02-26T04:46:00;14.80;;;10.68;;
12762;SDS011;6445;52.490;13.378;2024-02-26T04:48:26;16.60;;;11.48;;
12762;SDS011;6445;52.490;13.378;2024-02-26T04:50:52;16.15;;;10.75;;
12762;SDS011;6445;52.490;13.378;2024-02-26T04:53:17;13.50;;;10.27;;
12762;SDS011;6445;52.490;13.378;2024-02-26T04:55:43;16.63;;;10.73;;
12762;SDS011;6445;52.490;13.378;2024-02-26T04:58:08;15.23;;;10.98;;
12762;SDS011;6445;52.490;13.378;2024-02-26T05:00:33;13.93;;;11.30;;
12762;SDS011;6445;52.490;13.378;2024-02-26T05:02:59;16.15;;;10.88;;
12762;SDS011;6445;52.490;13.378;2024-02-26T05:05:24;16.45;;;11.75;;
12762;SDS011;6445;52.490;13.378;2024-02-26T05:07:49;16.80;;;11.25;;
12762;SDS011;6445;52.490;13.378;2024-02-26T05:10:15;17.50;;;11.30;;
12762;SDS011;6445;52.490;13.378;2024-02-26T05:12:40;19.90;;;12.82;;
12762;SDS011;6445;52.490;13.378;2024-02-26T05:15:07;18.05;;;12.60;;
12762;SDS011;6445;52.490;13.378;2024-02-26T05:17:33;17.40;;;12.80;;
12762;SDS011;6445;52.490;13.378;2024-02-26T05:19:58;19.38;;;13.73;;
12762;SDS011;6445;52.490;13.378;2024-02-26T05:22:24;17.23;;;12.80;;
12762;SDS011;6445;52.490;13.378;2024-02-26T05:24:49;20.90;;;13.70;;
12762;SDS011;6445;52.490;13.378;2024-02-26T05:27:15;20.98;;;13.10;;
12762;SDS011;6445;52.490;13.378;2024-02-26T05:29:40;19.20;;;13.20;;
12762;SDS011;6445;52.490;13.378;2024-02-26T05:32:05;18.30;;;13.43;;
12762;SDS011;6445;52.490;13.378;2024-02-26T05:34:31;21.77;;;14.02;;
12762;SDS011;6445;52.490;13.378;2024-02-26T05:36:57;23.30;;;14.77;;
12762;SDS011;6445;52.490;13.378;2024-02-26T05:39:22;20.30;;;14.13;;
12762;SDS011;6445;52.490;13.378;2024-02-26T05:41:47;21.27;;;14.32;;
12762;SDS011;6445;52.490;13.378;2024-02-26T05:44:14;19.83;;;13.45;;
12762;SDS011;6445;52.490;13.378;2024-02-26T05:46:40;17.92;;;14.15;;
12762;SDS011;6445;52.490;13.378;2024-02-26T05:49:07;22.33;;;14.20;;
12762;SDS011;6445;52.490;13.378;2024-02-26T05:51:32;19.88;;;14.50;;
12762;SDS011;6445;52.490;13.378;2024-02-26T05:53:57;21.33;;;13.50;;
12762;SDS011;6445;52.490;13.378;2024-02-26T05:56:23;20.60;;;14.18;;
12762;SDS011;6445;52.490;13.378;2024-02-26T05:58:48;21.77;;;14.27;;
12762;SDS011;6445;52.490;13.378;2024-02-26T06:01:15;21.38;;;14.43;;
12762;SDS011;6445;52.490;13.378;2024-02-26T06:03:40;23.08;;;15.23;;
12762;SDS011;6445;52.490;13.378;2024-02-26T06:06:06;23.95;;;16.50;;
12762;SDS011;6445;52.490;13.378;2024-02-26T06:08:31;22.42;;;15.10;;
12762;SDS011;6445;52.490;13.378;2024-02-26T06:10:56;25.33;;;15.23;;
12762;SDS011;6445;52.490;13.378;2024-02-26T06:13:21;20.60;;;14.88;;
12762;SDS011;6445;52.490;13.378;2024-02-26T06:15:47;27.92;;;16.08;;
12762;SDS011;6445;52.490;13.378;2024-02-26T06:18:12;26.48;;;15.85;;
12762;SDS011;6445;52.490;13.378;2024-02-26T06:20:37;23.88;;;15.82;;
12762;SDS011;6445;52.490;13.378;2024-02-26T06:23:02;23.70;;;16.35;;
12762;SDS011;6445;52.490;13.378;2024-02-26T06:25:28;25.95;;;17.20;;
12762;SDS011;6445;52.490;13.378;2024-02-26T06:27:53;28.33;;;18.77;;
12762;SDS011;6445;52.490;13.378;2024-02-26T06:30:19;28.83;;;17.50;;
12762;SDS011;6445;52.490;13.378;2024-02-26T06:32:45;33.33;;;17.88;;
12762;SDS011;6445;52.490;13.378;2024-02-26T06:35:10;29.50;;;17.23;;
12762;SDS011;6445;52.490;13.378;2024-02-26T06:37:36;40.78;;;25.08;;
12762;SDS011;6445;52.490;13.378;2024-02-26T06:40:02;31.60;;;19.20;;
12762;SDS011;6445;52.490;13.378;2024-02-26T06:42:31;30.48;;;19.70;;
12762;SDS011;6445;52.490;13.378;2024-02-26T06:44:59;34.85;;;21.15;;
12762;SDS011;6445;52.490;13.378;2024-02-26T06:47:24;41.67;;;22.30;;
12762;SDS011;6445;52.490;13.378;2024-02-26T06:49:50;27.65;;;19.48;;
12762;SDS011;6445;52.490;13.378;2024-02-26T06:52:16;31.60;;;20.08;;
12762;SDS011;6445;52.490;13.378;2024-02-26T06:54:41;30.58;;;19.67;;
12762;SDS011;6445;52.490;13.378;2024-02-26T06:57:06;32.42;;;20.42;;
12762;SDS011;6445;52.490;13.378;2024-02-26T06:59:32;30.02;;;19.48;;
12762;SDS011;6445;52.490;13.378;2024-02-26T07:01:57;29.67;;;18.85;;
12762;SDS011;6445;52.490;13.378;2024-02-26T07:04:22;28.48;;;18.67;;
12762;SDS011;6445;52.490;13.378;2024-02-26T07:06:47;27.33;;;18.45;;
12762;SDS011;6445;52.490;13.378;2024-02-26T07:09:13;30.52;;;18.35;;
12762;SDS011;6445;52.490;13.378;2024-02-26T07:11:38;24.80;;;17.95;;
12762;SDS011;6445;52.490;13.378;2024-02-26T07:14:06;26.95;;;17.95;;
12762;SDS011;6445;52.490;13.378;2024-02-26T07:16:33;26.73;;;17.48;;
12762;SDS011;6445;52.490;13.378;2024-02-26T07:18:58;24.55;;;16.40;;
12762;SDS011;6445;52.490;13.378;2024-02-26T07:21:23;24.90;;;15.27;;
12762;SDS011;6445;52.490;13.378;2024-02-26T07:23:49;22.30;;;15.15;;
12762;SDS011;6445;52.490;13.378;2024-02-26T07:26:14;32.15;;;15.05;;
12762;SDS011;6445;52.490;13.378;2024-02-26T07:28:39;19.73;;;13.60;;
12762;SDS011;6445;52.490;13.378;2024-02-26T07:31:05;21.38;;;13.88;;
12762;SDS011;6445;52.490;13.378;2024-02-26T07:33:30;21.02;;;14.32;;
12762;SDS011;6445;52.490;13.378;2024-02-26T07:35:55;21.25;;;13.40;;
12762;SDS011;6445;52.490;13.378;2024-02-26T07:38:20;18.40;;;12.82;;
12762;SDS011;6445;52.490;13.378;2024-02-26T07:40:46;18.25;;;12.38;;
12762;SDS011;6445;52.490;13.378;2024-02-26T07:43:11;19.10;;;13.90;;
12762;SDS011;6445;52.490;13.378;2024-02-26T07:45:36;19.45;;;13.32;;
12762;SDS011;6445;52.490;13.378;2024-02-26T07:48:02;18.65;;;12.85;;
12762;SDS011;6445;52.490;13.378;2024-02-26T07:50:27;17.48;;;12.35;;
12762;SDS011;6445;52.490;13.378;2024-02-26T07:52:53;17.63;;;12.60;;
12762;SDS011;6445;52.490;13.378;2024-02-26T07:55:18;18.73;;;12.95;;
12762;SDS011;6445;52.490;13.378;2024-02-26T07:57:44;16.85;;;12.30;;
12762;SDS011;6445;52.490;13.378;2024-02-26T08:00:09;19.70;;;13.30;;
12762;SDS011;6445;52.490;13.378;2024-02-26T08:02:38;17.98;;;12.95;;
12762;SDS011;6445;52.490;13.378;2024-02-26T08:05:04;18.10;;;12.10;;
12762;SDS011;6445;52.490;13.378;2024-02-26T08:07:29;17.35;;;12.85;;
12762;SDS011;6445;52.490;13.378;2024-02-26T08:09:55;20.65;;;12.80;;
12762;SDS011;6445;52.490;13.378;2024-02-26T08:12:20;19.92;;;13.32;;
12762;SDS011;6445;52.490;13.378;2024-02-26T08:14:45;18.63;;;13.85;;
12762;SDS011;6445;52.490;13.378;2024-02-26T08:17:11;20.42;;;13.40;;
12762;SDS011;6445;52.490;13.378;2024-02-26T08:19:36;19.23;;;13.18;;
12762;SDS011;6445;52.490;13.378;2024-02-26T08:22:01;18.25;;;13.00;;
12762;SDS011;6445;52.490;13.378;2024-02-26T08:24:27;23.15;;;14.48;;
12762;SDS011;6445;52.490;13.378;2024-02-26T08:26:53;22.83;;;14.07;;
12762;SDS011;6445;52.490;13.378;2024-02-26T08:29:18;18.67;;;13.23;;
12762;SDS011;6445;52.490;13.378;2024-02-26T08:31:43;20.60;;;13.65;;
12762;SDS011;6445;52.490;13.378;2024-02-26T08:34:09;17.55;;;13.45;;
12762;SDS011;6445;52.490;13.378;2024-02-26T08:36:34;19.52;;;13.50;;
12762;SDS011;6445;52.490;13.378;2024-02-26T08:39:00;15.70;;;12.70;;
12762;SDS011;6445;52.490;13.378;2024-02-26T08:41:25;17.30;;;12.25;;
12762;SDS011;6445;52.490;13.378;2024-02-26T08:43:51;18.42;;;12.68;;
12762;SDS011;6445;52.490;13.378;2024-02-26T08:46:16;15.30;;;12.52;;
12762;SDS011;6445;52.490;13.378;2024-02-26T08:48:41;18.67;;;13.38;;
12762;SDS011;6445;52.490;13.378;2024-02-26T08:51:07;17.08;;;13.00;;
12762;SDS011;6445;52.490;13.378;2024-02-26T08:53:33;21.83;;;14.10;;
12762;SDS011;6445;52.490;13.378;2024-02-26T08:55:59;18.50;;;13.65;;
12762;SDS011;6445;52.490;13.378;2024-02-26T08:58:25;20.73;;;13.38;;
12762;SDS011;6445;52.490;13.378;2024-02-26T09:00:51;17.23;;;13.23;;
12762;SDS011;6445;52.490;13.378;2024-02-26T09:03:16;20.58;;;13.05;;
12762;SDS011;6445;52.490;13.378;2024-02-26T09:05:42;16.83;;;13.07;;
12762;SDS011;6445;52.490;13.378;2024-02-26T09:08:07;17.00;;;12.48;;
12762;SDS011;6445;52.490;13.378;2024-02-26T09:10:33;17.58;;;12.20;;
12762;SDS011;6445;52.490;13.378;2024-02-26T09:12:59;15.95;;;12.80;;
12762;SDS011;6445;52.490;13.378;2024-02-26T09:15:24;18.73;;;11.63;;
12762;SDS011;6445;52.490;13.378;2024-02-26T09:17:50;17.23;;;11.93;;
12762;SDS011;6445;52.490;13.378;2024-02-26T09:20:16;14.23;;;12.00;;
12762;SDS011;6445;52.490;13.378;2024-02-26T09:22:45;17.65;;;12.77;;
12762;SDS011;6445;52.490;13.378;2024-02-26T09:25:11;18.23;;;13.18;;
12762;SDS011;6445;52.490;13.378;2024-02-26T09:27:36;18.50;;;13.07;;
12762;SDS011;6445;52.490;13.378;2024-02-26T09:30:01;15.93;;;12.40;;
12762;SDS011;6445;52.490;13.378;2024-02-26T09:32:26;16.27;;;12.48;;
12762;SDS011;6445;52.490;13.378;2024-02-26T09:34:52;15.77;;;12.85;;
12762;SDS011;6445;52.490;13.378;2024-02-26T09:37:17;16.30;;;11.93;;
12762;SDS011;6445;52.490;13.378;2024-02-26T09:39:42;16.67;;;12.43;;
12762;SDS011;6445;52.490;13.378;2024-02-26T09:42:08;15.85;;;11.77;;
12762;SDS011;6445;52.490;13.378;2024-02-26T09:44:35;18.77;;;12.13;;
12762;SDS011;6445;52.490;13.378;2024-02-26T09:47:04;16.05;;;11.68;;
12762;SDS011;6445;52.490;13.378;2024-02-26T09:49:32;15.05;;;11.05;;
12762;SDS011;6445;52.490;13.378;2024-02-26T09:51:59;19.60;;;13.15;;
12762;SDS011;6445;52.490;13.378;2024-02-26T09:54:27;18.13;;;12.93;;
12762;SDS011;6445;52.490;13.378;2024-02-26T09:56:53;16.27;;;12.35;;
12762;SDS011;6445;52.490;13.378;2024-02-26T09:59:23;14.02;;;10.70;;
12762;SDS011;6445;52.490;13.378;2024-02-26T10:01:48;19.88;;;10.90;;
12762;SDS011;6445;52.490;13.378;2024-02-26T10:04:15;15.45;;;11.07;;
12762;SDS011;6445;52.490;13.378;2024-02-26T10:06:41;12.93;;;11.02;;
12762;SDS011;6445;52.490;13.378;2024-02-26T10:09:09;12.90;;;10.98;;
12762;SDS011;6445;52.490;13.378;2024-02-26T10:11:35;13.07;;;11.18;;
12762;SDS011;6445;52.490;13.378;2024-02-26T10:14:00;13.02;;;10.50;;
12762;SDS011;6445;52.490;13.378;2024-02-26T10:16:25;15.82;;;11.02;;
12762;SDS011;6445;52.490;13.378;2024-02-26T10:18:52;14.43;;;10.85;;
12762;SDS011;6445;52.490;13.378;2024-02-26T10:21:21;16.77;;;10.48;;
12762;SDS011;6445;52.490;13.378;2024-02-26T10:23:47;15.82;;;10.18;;
12762;SDS011;6445;52.490;13.378;2024-02-26T10:26:13;14.65;;;10.63;;
12762;SDS011;6445;52.490;13.378;2024-02-26T10:28:39;12.57;;;9.77;;
12762;SDS011;6445;52.490;13.378;2024-02-26T10:31:06;11.68;;;9.88;;
12762;SDS011;6445;52.490;13.378;2024-02-26T10:33:35;12.10;;;10.05;;
12762;SDS011;6445;52.490;13.378;2024-02-26T10:36:02;12.27;;;9.07;;
12762;SDS011;6445;52.490;13.378;2024-02-26T10:38:29;15.10;;;9.77;;
12762;SDS011;6445;52.490;13.378;2024-02-26T10:40:54;17.92;;;9.38;;
12762;SDS011;6445;52.490;13.378;2024-02-26T10:43:20;14.00;;;9.55;;
12762;SDS011;6445;52.490;13.378;2024-02-26T10:45:45;13.10;;;9.23;;
12762;SDS011;6445;52.490;13.378;2024-02-26T10:48:12;12.20;;;9.65;;
12762;SDS011;6445;52.490;13.378;2024-02-26T10:50:39;13.18;;;8.82;;
12762;SDS011;6445;52.490;13.378;2024-02-26T10:53:05;14.23;;;9.77;;
12762;SDS011;6445;52.490;13.378;2024-02-26T10:55:39;12.55;;;9.48;;
12762;SDS011;6445;52.490;13.378;2024-02-26T10:58:06;10.85;;;8.98;;
12762;SDS011;6445;52.490;13.378;2024-02-26T11:00:33;11.75;;;8.38;;
12762;SDS011;6445;52.490;13.378;2024-02-26T11:02:59;12.52;;;8.95;;
12762;SDS011;6445;52.490;13.378;2024-02-26T11:05:28;14.30;;;8.95;;
12762;SDS011;6445;52.490;13.378;2024-02-26T11:07:53;12.13;;;9.25;;
12762;SDS011;6445;52.490;13.378;2024-02-26T11:10:20;12.52;;;8.00;;
12762;SDS011;6445;52.490;13.378;2024-02-26T11:12:46;11.55;;;8.40;;
12762;SDS011;6445;52.490;13.378;2024-02-26T11:15:12;10.15;;;8.10;;
12762;SDS011;6445;52.490;13.378;2024-02-26T11:17:38;13.02;;;8.75;;
12762;SDS011;6445;52.490;13.378;2024-02-26T11:20:04;11.23;;;7.82;;
12762;SDS011;6445;52.490;13.378;2024-02-26T11:22:34;14.80;;;9.48;;
12762;SDS011;6445;52.490;13.378;2024-02-26T11:24:59;17.73;;;10.10;;
12762;SDS011;6445;52.490;13.378;2024-02-26T11:27:33;10.23;;;8.65;;
12762;SDS011;6445;52.490;13.378;2024-02-26T11:30:06;14.15;;;8.35;;
12762;SDS011;6445;52.490;13.378;2024-02-26T11:32:35;9.57;;;7.60;;
12762;SDS011;6445;52.490;13.378;2024-02-26T11:35:01;9.45;;;6.88;;
12762;SDS011;6445;52.490;13.378;2024-02-26T11:37:26;9.30;;;7.55;;
12762;SDS011;6445;52.490;13.378;2024-02-26T11:39:52;9.80;;;7.47;;
12762;SDS011;6445;52.490;13.378;2024-02-26T11:42:18;11.32;;;8.20;;
12762;SDS011;6445;52.490;13.378;2024-02-26T11:44:48;9.15;;;7.82;;
12762;SDS011;6445;52.490;13.378;2024-02-26T11:47:14;10.88;;;8.10;;
12762;SDS011;6445;52.490;13.378;2024-02-26T11:49:43;14.32;;;7.90;;
12762;SDS011;6445;52.490;13.378;2024-02-26T11:52:09;11.50;;;7.80;;
12762;SDS011;6445;52.490;13.378;2024-02-26T11:54:38;13.75;;;8.25;;
12762;SDS011;6445;52.490;13.378;2024-02-26T11:57:24;11.82;;;7.90;;
12762;SDS011;6445;52.490;13.378;2024-02-26T11:59:54;10.23;;;7.47;;
12762;SDS011;6445;52.490;13.378;2024-02-26T12:05:19;10.02;;;8.30;;
12762;SDS011;6445;52.490;13.378;2024-02-26T12:07:49;12.30;;;8.82;;
12762;SDS011;6445;52.490;13.378;2024-02-26T12:10:25;10.07;;;8.73;;
12762;SDS011;6445;52.490;13.378;2024-02-26T12:12:55;11.55;;;8.52;;
12762;SDS011;6445;52.490;13.378;2024-02-26T12:15:24;13.05;;;9.23;;
12762;SDS011;6445;52.490;13.378;2024-02-26T12:17:51;12.30;;;9.30;;
12762;SDS011;6445;52.490;13.378;2024-02-26T12:20:17;13.90;;;8.82;;
12762;SDS011;6445;52.490;13.378;2024-02-26T12:22:45;16.55;;;10.60;;
12762;SDS011;6445;52.490;13.378;2024-02-26T12:25:13;10.60;;;8.52;;
12762;SDS011;6445;52.490;13.378;2024-02-26T12:27:38;11.80;;;9.05;;
12762;SDS011;6445;52.490;13.378;2024-02-26T12:30:04;14.10;;;9.15;;
12762;SDS011;6445;52.490;13.378;2024-02-26T12:32:32;11.13;;;8.88;;
12762;SDS011;6445;52.490;13.378;2024-02-26T12:34:58;10.80;;;8.68;;
12762;SDS011;6445;52.490;13.378;2024-02-26T12:37:23;12.75;;;8.95;;
12762;SDS011;6445;52.490;13.378;2024-02-26T12:39:49;14.15;;;9.50;;
12762;SDS011;6445;52.490;13.378;2024-02-26T12:42:15;14.93;;;10.20;;
12762;SDS011;6445;52.490;13.378;2024-02-26T12:44:40;15.98;;;9.90;;
12762;SDS011;6445;52.490;13.378;2024-02-26T12:47:05;27.00;;;20.33;;
12762;SDS011;6445;52.490;13.378;2024-02-26T12:49:30;13.85;;;9.73;;
12762;SDS011;6445;52.490;13.378;2024-02-26T12:51:56;13.32;;;9.55;;
12762;SDS011;6445;52.490;13.378;2024-02-26T12:54:32;12.63;;;9.05;;
12762;SDS011;6445;52.490;13.378;2024-02-26T12:57:00;9.77;;;7.78;;
12762;SDS011;6445;52.490;13.378;2024-02-26T12:59:28;8.88;;;7.22;;
12762;SDS011;6445;52.490;13.378;2024-02-26T13:01:54;7.82;;;6.72;;
12762;SDS011;6445;52.490;13.378;2024-02-26T13:04:20;9.13;;;6.80;;
12762;SDS011;6445;52.490;13.378;2024-02-26T13:06:45;9.73;;;7.20;;
12762;SDS011;6445;52.490;13.378;2024-02-26T13:09:14;12.20;;;9.02;;
12762;SDS011;6445;52.490;13.378;2024-02-26T13:11:40;13.00;;;9.65;;
12762;SDS011;6445;52.490;13.378;2024-02-26T13:14:05;10.18;;;7.65;;
12762;SDS011;6445;52.490;13.378;2024-02-26T13:16:31;10.13;;;7.20;;
12762;SDS011;6445;52.490;13.378;2024-02-26T13:19:07;9.60;;;6.85;;
12762;SDS011;6445;52.490;13.378;2024-02-26T13:21:34;8.63;;;6.20;;
12762;SDS011;6445;52.490;13.378;2024-02-26T13:23:59;8.50;;;5.93;;
12762;SDS011;6445;52.490;13.378;2024-02-26T13:26:24;9.38;;;6.05;;
12762;SDS011;6445;52.490;13.378;2024-02-26T13:29:02;9.10;;;6.07;;
12762;SDS011;6445;52.490;13.378;2024-02-26T13:31:28;8.77;;;5.80;;
12762;SDS011;6445;52.490;13.378;2024-02-26T13:33:53;7.43;;;5.95;;
12762;SDS011;6445;52.490;13.378;2024-02-26T13:36:20;9.38;;;5.80;;
12762;SDS011;6445;52.490;13.378;2024-02-26T13:38:52;12.93;;;5.72;;
12762;SDS011;6445;52.490;13.378;2024-02-26T13:41:19;6.72;;;5.25;;
12762;SDS011;6445;52.490;13.378;2024-02-26T13:43:44;6.63;;;5.40;;
12762;SDS011;6445;52.490;13.378;2024-02-26T13:46:10;7.25;;;5.22;;
12762;SDS011;6445;52.490;13.378;2024-02-26T13:48:37;5.97;;;5.05;;
12762;SDS011;6445;52.490;13.378;2024-02-26T13:51:03;8.20;;;5.30;;
12762;SDS011;6445;52.490;13.378;2024-02-26T13:53:29;6.88;;;4.78;;
12762;SDS011;6445;52.490;13.378;2024-02-26T13:55:54;8.25;;;5.28;;
12762;SDS011;6445;52.490;13.378;2024-02-26T13:58:19;6.80;;;4.97;;
12762;SDS011;6445;52.490;13.378;2024-02-26T14:00:48;9.20;;;5.65;;
12762;SDS011;6445;52.490;13.378;2024-02-26T14:03:14;7.10;;;4.97;;
12762;SDS011;6445;52.490;13.378;2024-02-26T14:05:39;7.40;;;4.55;;
12762;SDS011;6445;52.490;13.378;2024-02-26T14:08:05;7.18;;;5.22;;
12762;SDS011;6445;52.490;13.378;2024-02-26T14:10:31;8.32;;;5.05;;
12762;SDS011;6445;52.490;13.378;2024-02-26T14:12:57;5.80;;;4.63;;
12762;SDS011;6445;52.490;13.378;2024-02-26T14:15:22;5.97;;;4.40;;
12762;SDS011;6445;52.490;13.378;2024-02-26T14:17:49;10.57;;;5.60;;
12762;SDS011;6445;52.490;13.378;2024-02-26T14:20:24;6.88;;;5.10;;
12762;SDS011;6445;52.490;13.378;2024-02-26T14:22:50;8.70;;;5.45;;
12762;SDS011;6445;52.490;13.378;2024-02-26T14:25:18;8.00;;;5.70;;